createdAt,value
2023-03-16T00:01:27.074Z,-0.41
2023-03-16T00:11:27.262Z,-0.70
2023-03-16T00:21:27.656Z,-0.97
2023-03-16T00:31:27.666Z,-0.72
2023-03-16T00:41:27.732Z,-0.77
2023-03-16T00:51:27.941Z,-0.80
2023-03-16T01:01:28.151Z,-0.54
2023-03-16T01:11:28.362Z,-0.50
2023-03-16T01:21:28.547Z,-0.84
2023-03-16T01:31:29.004Z,-0.66
2023-03-16T01:41:28.946Z,-0.69
2023-03-16T01:51:29.191Z,-0.78
2023-03-16T02:01:29.423Z,-1.06
2023-03-16T02:11:29.571Z,-1.07
2023-03-16T02:21:29.747Z,-1.03
2023-03-16T02:31:30.052Z,-1.21
2023-03-16T02:41:30.133Z,-0.92
2023-03-16T02:51:30.370Z,-0.91
2023-03-16T03:01:30.548Z,-1.21
2023-03-16T03:11:30.857Z,-0.86
2023-03-16T03:21:30.916Z,-0.95
2023-03-16T03:31:31.194Z,-1.20
2023-03-16T03:41:31.241Z,-1.23
2023-03-16T03:51:31.475Z,-0.87
2023-03-16T04:01:31.704Z,-0.94
2023-03-16T04:11:31.812Z,-1.15
2023-03-16T04:21:31.993Z,-1.15
2023-03-16T04:31:32.221Z,-0.87
2023-03-16T04:41:32.396Z,-0.84
2023-03-16T04:51:32.630Z,-0.91
2023-03-16T05:01:32.803Z,-0.77
2023-03-16T05:11:32.930Z,-0.97
2023-03-16T05:21:33.102Z,-0.75
2023-03-16T05:31:33.396Z,-0.62
2023-03-16T05:41:33.506Z,-0.65
2023-03-16T05:51:33.793Z,-0.55
2023-03-16T06:01:34.014Z,-0.37
2023-03-16T06:11:34.317Z,-0.31
2023-03-16T06:21:34.146Z,0.00
2023-03-16T06:31:34.431Z,0.20
2023-03-16T06:41:34.528Z,0.27
2023-03-16T06:51:34.819Z,0.43
2023-03-16T07:01:34.977Z,0.65
2023-03-16T07:11:35.383Z,0.80
2023-03-16T07:21:35.261Z,1.19
2023-03-16T07:31:35.499Z,1.47
2023-03-16T07:41:35.476Z,1.89
2023-03-16T07:51:35.734Z,2.28
2023-03-16T08:01:35.830Z,2.91
2023-03-16T08:11:35.977Z,3.49
2023-03-16T08:21:45.781Z,3.86
2023-03-16T08:31:37.384Z,4.39
2023-03-16T08:41:36.413Z,4.67
2023-03-16T08:51:36.676Z,4.88
2023-03-16T09:01:36.814Z,5.46
2023-03-16T09:11:36.934Z,7.15
2023-03-16T09:21:37.116Z,10.07
2023-03-16T09:31:37.588Z,9.75
2023-03-16T09:41:37.351Z,10.62
2023-03-16T09:51:37.674Z,11.43
2023-03-16T10:01:37.725Z,11.02
2023-03-16T10:11:38.221Z,11.11
2023-03-16T10:21:38.164Z,11.78
2023-03-16T10:31:38.527Z,10.89
2023-03-16T10:41:38.724Z,12.09
2023-03-16T10:51:38.623Z,11.61
2023-03-16T11:01:38.886Z,12.45
2023-03-16T11:11:39.065Z,13.55
2023-03-16T11:21:39.228Z,12.71
2023-03-16T11:31:39.460Z,13.79
2023-03-16T11:41:39.653Z,13.99
2023-03-16T11:51:41.153Z,13.61
2023-03-16T12:01:43.251Z,13.27
2023-03-16T12:11:42.062Z,13.12
2023-03-16T12:21:40.355Z,12.70
2023-03-16T12:31:40.678Z,13.43
2023-03-16T12:41:40.827Z,12.79
2023-03-16T12:51:41.148Z,13.96
2023-03-16T13:01:41.101Z,15.11
2023-03-16T13:11:41.333Z,16.06
2023-03-16T13:21:41.526Z,14.53
2023-03-16T13:31:42.308Z,14.37
2023-03-16T13:41:43.492Z,14.84
2023-03-16T13:51:42.129Z,15.24
2023-03-16T14:01:42.395Z,15.52
2023-03-16T14:11:42.560Z,14.43
2023-03-16T14:21:42.606Z,13.07
2023-03-16T14:31:42.829Z,14.62
2023-03-16T14:41:42.993Z,15.74
2023-03-16T14:51:43.224Z,15.28
2023-03-16T15:01:43.456Z,15.27
2023-03-16T15:11:43.567Z,14.60
2023-03-16T15:21:43.746Z,14.71
2023-03-16T15:31:45.352Z,14.28
2023-03-16T15:41:47.797Z,13.59
2023-03-16T15:51:44.628Z,12.84
2023-03-16T16:01:44.462Z,12.81
2023-03-16T16:11:44.883Z,12.56
2023-03-16T16:21:45.099Z,12.16
2023-03-16T16:31:45.020Z,11.75
2023-03-16T16:41:45.092Z,11.38
2023-03-16T16:51:45.360Z,10.86
2023-03-16T17:01:45.441Z,10.40
2023-03-16T17:11:45.904Z,10.07
2023-03-16T17:21:45.786Z,9.60
2023-03-16T17:31:46.158Z,9.01
2023-03-16T17:41:46.235Z,8.62
2023-03-16T17:51:46.513Z,8.60
2023-03-16T18:01:46.682Z,8.54
2023-03-16T18:11:46.967Z,7.99
2023-03-16T18:21:46.905Z,7.74
2023-03-16T18:31:47.239Z,7.23
2023-03-16T18:41:47.481Z,7.08
2023-03-16T18:51:47.784Z,6.66
2023-03-16T19:01:47.673Z,6.62
2023-03-16T19:11:47.800Z,6.29
2023-03-16T19:21:47.954Z,6.04
2023-03-16T19:31:48.312Z,5.81
2023-03-16T19:41:48.285Z,5.73
2023-03-16T19:51:48.542Z,5.68
2023-03-16T20:01:48.743Z,5.30
2023-03-16T20:11:49.003Z,5.43
2023-03-16T20:21:49.474Z,5.23
2023-03-16T20:31:49.335Z,5.23
2023-03-16T20:41:49.439Z,5.23
2023-03-16T20:51:49.702Z,4.80
2023-03-16T21:01:49.848Z,4.98
2023-03-16T21:11:50.124Z,4.96
2023-03-16T21:21:50.200Z,4.67
2023-03-16T21:31:50.693Z,4.51
2023-03-16T21:41:50.569Z,4.84
2023-03-16T21:51:50.835Z,4.61
2023-03-16T22:02:01.530Z,4.58
2023-03-16T22:11:52.455Z,4.33
2023-03-16T22:21:52.471Z,4.37
2023-03-16T22:31:51.564Z,4.58
2023-03-16T22:41:51.591Z,4.52
2023-03-16T22:51:51.849Z,4.47
2023-03-16T23:01:51.963Z,4.32
2023-03-16T23:11:53.860Z,4.43
2023-03-16T23:21:52.487Z,4.40
2023-03-16T23:31:52.505Z,4.55
2023-03-16T23:41:52.697Z,4.58
2023-03-16T23:51:54.015Z,5.04
